Time;durP1;ratioP1;P1;durP2;ratioP2;P2;SDS_P1;SDS_P2;PMS_P1;PMS_P2;Temp;Humidity;BMP_temperature;BMP_pressure;BME280_temperature;BME280_humidity;BME280_pressure;Samples;Min_cycle;Max_cycle;Signal;HPM_P1;HPM_P2
2023/09/10 00:01:03;;;;;;;16.20;10.75;;;;;;;20.14;85.50;100939.28;5007463;28;20053;-46
2023/09/10 00:03:32;;;;;;;17.25;9.63;;;;;;;20.13;85.73;100934.88;5006954;28;20050;-46
2023/09/10 00:06:00;;;;;;;11.80;8.40;;;;;;;20.10;85.56;100932.06;5001492;28;20046;-46
2023/09/10 00:08:28;;;;;;;15.38;8.85;;;;;;;20.07;85.97;100918.84;4999684;28;20524;-46
2023/09/10 00:10:58;;;;;;;12.07;8.30;;;;;;;20.07;85.81;100930.84;5011119;28;20506;-46
2023/09/10 00:13:25;;;;;;;14.23;9.80;;;;;;;20.03;85.89;100930.88;5010473;28;20125;-46
2023/09/10 00:15:54;;;;;;;17.42;10.23;;;;;;;20.03;85.80;100924.47;4988435;28;20462;-46
2023/09/10 00:18:21;;;;;;;21.85;11.00;;;;;;;20.02;86.03;100929.28;5010857;28;20097;-46
2023/09/10 00:20:51;;;;;;;15.70;10.75;;;;;;;20.02;86.14;100923.66;5021117;28;20050;-46
2023/09/10 00:23:18;;;;;;;13.88;9.15;;;;;;;19.99;86.13;100930.06;5010736;28;20049;-48
2023/09/10 00:25:45;;;;;;;20.05;10.30;;;;;;;19.97;85.97;100926.88;5009209;28;20089;-46
2023/09/10 00:28:12;;;;;;;17.15;10.27;;;;;;;19.94;86.30;100927.69;5012551;28;20443;-46
2023/09/10 00:30:39;;;;;;;13.20;9.98;;;;;;;19.93;86.36;100930.91;5013929;28;20060;-49
2023/09/10 00:33:06;;;;;;;18.15;10.40;;;;;;;19.93;86.11;100923.28;4996900;28;20108;-46
2023/09/10 00:35:32;;;;;;;16.05;10.68;;;;;;;19.92;86.28;100918.84;4996668;28;20515;-47
2023/09/10 00:37:59;;;;;;;14.35;10.07;;;;;;;19.92;86.58;100926.47;5014951;28;20041;-46
2023/09/10 00:40:28;;;;;;;17.65;10.70;;;;;;;19.89;86.58;100922.47;5014585;28;20053;-46
2023/09/10 00:42:55;;;;;;;17.65;10.00;;;;;;;19.86;86.30;100928.91;5014527;28;20050;-47
2023/09/10 00:45:21;;;;;;;15.38;9.68;;;;;;;19.86;86.48;100917.66;4995034;28;20061;-46
2023/09/10 00:47:49;;;;;;;17.88;10.00;;;;;;;19.83;86.89;100912.84;5014463;28;20401;-48
2023/09/10 00:50:17;;;;;;;18.27;10.95;;;;;;;19.81;86.64;100911.63;5009733;28;20042;-48
2023/09/10 00:52:49;;;;;;;16.05;9.65;;;;;;;19.80;86.91;100915.69;5014478;28;20054;-46
2023/09/10 00:55:16;;;;;;;12.18;9.35;;;;;;;19.78;86.87;100913.25;5011042;28;20068;-47
2023/09/10 00:57:43;;;;;;;15.02;8.63;;;;;;;19.75;87.14;100908.44;5000629;28;20075;-46
2023/09/10 01:00:12;;;;;;;13.23;8.82;;;;;;;19.71;87.05;100915.28;5010439;28;20045;-46
2023/09/10 01:02:43;;;;;;;17.80;9.20;;;;;;;19.71;87.16;100913.28;5008902;28;20128;-47
2023/09/10 01:05:16;;;;;;;11.98;8.88;;;;;;;19.70;87.04;100910.84;5008604;28;20038;-48
2023/09/10 01:07:44;;;;;;;18.13;8.77;;;;;;;19.68;87.13;100902.84;5011578;28;20046;-47
2023/09/10 01:10:11;;;;;;;13.25;7.90;;;;;;;19.65;87.60;100891.59;5011152;28;20492;-47
2023/09/10 01:13:00;;;;;;;13.30;7.88;;;;;;;19.63;87.23;100903.25;5005729;28;20440;-46
2023/09/10 01:15:40;;;;;;;12.15;8.38;;;;;;;19.61;87.51;100897.22;5011097;28;20086;-47
2023/09/10 01:18:24;;;;;;;15.25;8.40;;;;;;;19.58;87.56;100905.66;5010676;28;20416;-46
2023/09/10 01:21:10;;;;;;;13.77;7.88;;;;;;;19.55;87.37;100910.06;5010578;28;20045;-46
2023/09/10 01:23:50;;;;;;;12.65;8.18;;;;;;;19.53;87.39;100904.06;5002512;28;20038;-47
2023/09/10 01:26:17;;;;;;;13.68;7.88;;;;;;;19.52;87.18;100905.25;5012738;28;20104;-46
2023/09/10 01:28:44;;;;;;;13.88;8.10;;;;;;;19.51;87.61;100897.25;5012813;28;20053;-46
2023/09/10 01:31:11;;;;;;;13.65;8.32;;;;;;;19.49;87.98;100894.81;5011963;28;20052;-46
2023/09/10 01:33:45;;;;;;;17.30;8.15;;;;;;;19.49;87.81;100892.00;5010525;28;20050;-50
2023/09/10 01:36:17;;;;;;;12.15;6.60;;;;;;;19.47;87.88;100886.00;5001521;28;20061;-46
2023/09/10 01:38:55;;;;;;;14.30;8.23;;;;;;;19.47;88.05;100885.19;4983055;28;20054;-46
2023/09/10 01:41:24;;;;;;;11.40;7.35;;;;;;;19.42;87.89;100884.41;4988919;28;20136;-47
2023/09/10 01:43:52;;;;;;;9.77;6.95;;;;;;;19.40;87.93;100884.03;5007437;28;20045;-49
2023/09/10 01:46:22;;;;;;;12.38;6.90;;;;;;;19.39;88.24;100875.97;5014224;28;20518;-46
2023/09/10 01:48:48;;;;;;;12.80;6.57;;;;;;;19.34;88.20;100867.94;5010319;28;20049;-49
2023/09/10 01:51:16;;;;;;;27.08;8.10;;;;;;;19.33;88.61;100866.31;5011024;28;20084;-47
2023/09/10 01:53:43;;;;;;;14.20;7.60;;;;;;;19.34;88.19;100865.94;5008802;28;20042;-46
2023/09/10 01:56:10;;;;;;;10.50;6.32;;;;;;;19.31;88.32;100865.91;5005562;28;20068;-47
2023/09/10 01:58:38;;;;;;;8.32;6.15;;;;;;;19.30;88.44;100869.94;5002992;28;20053;-46
2023/09/10 02:01:08;;;;;;;10.82;7.50;;;;;;;19.28;88.42;100863.91;5005937;28;20046;-48
2023/09/10 02:03:35;;;;;;;13.13;7.05;;;;;;;19.26;88.47;100875.56;5013286;28;20077;-48
2023/09/10 02:06:03;;;;;;;14.00;8.98;;;;;;;19.26;88.39;100877.56;5012753;28;20053;-47
2023/09/10 02:08:30;;;;;;;13.02;6.88;;;;;;;19.26;88.75;100880.38;4986889;28;20049;-46
2023/09/10 02:10:57;;;;;;;16.15;8.80;;;;;;;19.24;88.60;100871.53;5012493;28;20184;-46
2023/09/10 02:13:24;;;;;;;11.20;7.95;;;;;;;19.22;88.77;100873.97;5003838;28;20057;-48
2023/09/10 02:15:51;;;;;;;14.25;8.40;;;;;;;19.21;88.77;100875.97;4994948;28;20038;-51
2023/09/10 02:18:18;;;;;;;12.80;8.25;;;;;;;19.20;88.96;100881.94;5008220;28;20037;-47
2023/09/10 02:20:45;;;;;;;14.32;8.50;;;;;;;19.17;88.97;100865.91;5007715;28;20401;-48
2023/09/10 02:23:11;;;;;;;13.32;7.82;;;;;;;19.15;89.40;100859.91;5010016;28;20049;-46
2023/09/10 02:25:38;;;;;;;12.27;7.88;;;;;;;19.12;89.25;100858.69;5005000;28;20050;-48
2023/09/10 02:28:06;;;;;;;13.05;8.25;;;;;;;19.09;89.52;100859.50;5011550;28;20050;-45
2023/09/10 02:30:33;;;;;;;14.20;9.63;;;;;;;19.08;89.70;100857.09;5012196;28;20053;-46
2023/09/10 02:33:00;;;;;;;16.05;9.93;;;;;;;19.08;89.53;100852.31;5006283;28;20081;-49
2023/09/10 02:35:26;;;;;;;15.20;9.52;;;;;;;19.07;89.79;100863.91;5007502;28;20057;-47
2023/09/10 02:37:53;;;;;;;17.20;11.02;;;;;;;19.05;89.81;100857.91;5014320;28;20057;-46
2023/09/10 02:40:20;;;;;;;16.67;10.02;;;;;;;19.01;89.65;100857.88;5008490;28;20139;-46
2023/09/10 02:42:47;;;;;;;19.83;11.73;;;;;;;19.00;90.12;100856.31;5000007;28;20813;-46
2023/09/10 02:45:14;;;;;;;17.90;11.68;;;;;;;18.97;89.85;100845.88;4998926;28;20042;-46
2023/09/10 02:47:41;;;;;;;20.27;10.80;;;;;;;18.96;89.99;100849.06;5008885;28;21137;-46
2023/09/10 02:50:09;;;;;;;18.85;12.23;;;;;;;18.95;90.52;100847.47;5008900;28;20123;-45
2023/09/10 02:52:36;;;;;;;19.67;11.43;;;;;;;18.93;90.44;100841.47;5007866;28;20562;-46
2023/09/10 02:55:04;;;;;;;24.55;14.23;;;;;;;18.93;90.88;100844.28;5008244;28;20133;-46
2023/09/10 02:57:30;;;;;;;15.88;11.80;;;;;;;18.90;90.88;100842.25;5009758;28;20041;-46
2023/09/10 02:59:57;;;;;;;19.73;11.60;;;;;;;18.93;90.57;100844.28;5008170;28;20046;-47
2023/09/10 03:02:24;;;;;;;26.10;15.27;;;;;;;18.93;91.01;100838.66;5096603;23;20049;-44
2023/09/10 03:04:51;;;;;;;19.17;13.77;;;;;;;18.90;90.96;100839.44;5009304;28;20049;-44
2023/09/10 03:07:18;;;;;;;25.58;14.10;;;;;;;18.87;91.12;100834.63;5008789;28;20041;-44
2023/09/10 03:09:45;;;;;;;25.25;14.60;;;;;;;18.84;91.06;100842.66;5008482;28;20495;-44
2023/09/10 03:12:29;;;;;;;18.60;11.35;;;;;;;18.83;91.42;100835.44;5009403;28;20053;-46
2023/09/10 03:14:55;;;;;;;24.42;13.60;;;;;;;18.81;91.29;100837.84;5009227;28;20507;-44
2023/09/10 03:17:22;;;;;;;20.20;12.05;;;;;;;18.80;91.25;100847.44;5010380;28;20056;-44
2023/09/10 03:19:49;;;;;;;21.52;13.73;;;;;;;18.80;91.29;100847.44;5010836;28;20098;-44
2023/09/10 03:22:16;;;;;;;22.63;12.40;;;;;;;18.78;91.26;100844.25;4993913;28;20045;-44
2023/09/10 03:24:43;;;;;;;21.70;13.27;;;;;;;18.74;91.22;100837.03;5009296;28;20752;-45
2023/09/10 03:27:10;;;;;;;19.42;12.65;;;;;;;18.73;91.24;100847.44;5010433;28;20069;-44
2023/09/10 03:29:37;;;;;;;25.70;15.10;;;;;;;18.71;91.26;100847.03;4998968;28;20041;-44
2023/09/10 03:32:07;;;;;;;17.70;11.48;;;;;;;18.68;91.37;100845.03;5009438;28;20065;-45
2023/09/10 03:34:35;;;;;;;23.33;13.45;;;;;;;18.66;91.69;100850.25;5002533;28;20069;-45
2023/09/10 03:37:06;;;;;;;23.35;12.40;;;;;;;18.64;91.54;100854.63;5008651;28;20042;-44
2023/09/10 03:39:34;;;;;;;27.83;16.00;;;;;;;18.61;91.67;100852.63;5010327;28;20042;-50
2023/09/10 03:42:01;;;;;;;18.48;12.95;;;;;;;18.60;91.79;100851.81;5009606;28;20042;-45
2023/09/10 03:44:27;;;;;;;22.27;13.48;;;;;;;18.57;91.75;100849.81;5011331;28;20068;-44
2023/09/10 03:46:54;;;;;;;20.75;12.98;;;;;;;18.54;92.10;100856.22;5008627;28;20050;-44
2023/09/10 03:49:21;;;;;;;24.38;13.40;;;;;;;18.51;91.89;100856.19;5010815;28;20053;-45
2023/09/10 03:51:53;;;;;;;22.95;13.07;;;;;;;18.49;92.26;100852.97;5009945;28;20060;-48
2023/09/10 03:54:19;;;;;;;29.80;15.68;;;;;;;18.47;92.20;100852.56;5010493;28;20399;-46
2023/09/10 03:56:47;;;;;;;37.17;18.73;;;;;;;18.46;92.82;100853.75;5010265;28;20050;-44
2023/09/10 03:59:13;;;;;;;49.92;21.05;;;;;;;18.44;92.85;100851.34;5009346;28;20056;-45
2023/09/10 04:01:40;;;;;;;48.78;23.35;;;;;;;18.43;93.72;100846.94;5009876;28;20050;-43
2023/09/10 04:04:07;;;;;;;40.90;20.00;;;;;;;18.43;93.77;100844.13;5013693;28;20041;-44
2023/09/10 04:06:34;;;;;;;43.97;20.95;;;;;;;18.43;94.34;100849.72;5011782;28;20054;-45
2023/09/10 04:09:02;;;;;;;46.25;20.55;;;;;;;18.45;94.25;100840.94;5004222;28;20046;-46
2023/09/10 04:11:28;;;;;;;38.20;17.98;;;;;;;18.47;94.88;100836.56;5014370;28;20049;-45
2023/09/10 04:13:55;;;;;;;68.80;20.73;;;;;;;18.51;95.09;100845.78;5010036;28;20097;-45
2023/09/10 04:16:22;;;;;;;35.40;16.67;;;;;;;18.51;95.25;100845.78;5013102;28;20054;-44
2023/09/10 04:18:50;;;;;;;35.50;16.67;;;;;;;18.53;95.25;100846.19;4998260;28;20129;-44
2023/09/10 04:21:17;;;;;;;42.67;19.25;;;;;;;18.57;95.50;100849.81;5012418;28;20038;-44
2023/09/10 04:23:43;;;;;;;36.35;18.05;;;;;;;18.61;95.56;100838.63;5014724;28;20828;-44
2023/09/10 04:26:12;;;;;;;35.75;19.30;;;;;;;18.62;95.86;100832.59;5013571;28;20443;-45
2023/09/10 04:28:40;;;;;;;45.83;20.45;;;;;;;18.63;95.81;100827.78;5015013;28;20086;-44
2023/09/10 04:31:13;;;;;;;43.30;20.13;;;;;;;18.63;95.95;100830.59;5014098;28;20060;-45
2023/09/10 04:33:40;;;;;;;34.97;17.33;;;;;;;18.59;96.08;100824.97;5014178;28;20060;-45
2023/09/10 04:36:08;;;;;;;31.50;16.35;;;;;;;18.62;96.19;100826.19;5011264;28;20046;-45
2023/09/10 04:38:35;;;;;;;43.00;19.52;;;;;;;18.62;96.30;100812.16;5012152;28;20058;-46
2023/09/10 04:41:02;;;;;;;30.45;16.38;;;;;;;18.62;96.47;100821.38;5012645;28;22145;-45
2023/09/10 04:43:29;;;;;;;42.30;18.33;;;;;;;18.62;96.35;100823.38;5010448;28;20128;-44
2023/09/10 04:45:56;;;;;;;32.70;16.67;;;;;;;18.60;96.53;100809.75;5011365;28;20045;-46
2023/09/10 04:48:22;;;;;;;26.90;14.00;;;;;;;18.59;96.43;100813.75;5011002;28;20578;-44
2023/09/10 04:50:49;;;;;;;35.25;15.10;;;;;;;18.59;96.40;100824.97;5013381;28;20049;-43
2023/09/10 04:53:16;;;;;;;42.85;16.35;;;;;;;18.57;96.45;100818.16;5013048;28;20049;-43
2023/09/10 04:55:43;;;;;;;39.38;16.02;;;;;;;18.57;96.71;100820.97;5012436;28;20080;-44
2023/09/10 04:58:12;;;;;;;51.95;18.08;;;;;;;18.58;96.72;100829.00;5013409;28;20484;-47
2023/09/10 05:00:40;;;;;;;30.55;15.00;;;;;;;18.58;97.04;100831.00;5013493;28;20056;-43
2023/09/10 05:03:07;;;;;;;42.13;14.48;;;;;;;18.57;96.88;100827.38;5012993;28;20060;-44
2023/09/10 05:05:34;;;;;;;29.27;14.65;;;;;;;18.57;97.00;100821.78;5005366;28;20050;-44
2023/09/10 05:08:02;;;;;;;52.45;17.02;;;;;;;18.56;97.14;100828.56;5013392;28;20395;-43
2023/09/10 05:10:30;;;;;;;129.73;21.05;;;;;;;18.57;97.15;100827.38;5011625;28;20495;-44
2023/09/10 05:12:57;;;;;;;98.97;17.88;;;;;;;18.56;97.33;100822.19;5013811;28;20041;-43
2023/09/10 05:15:23;;;;;;;51.53;14.63;;;;;;;18.55;97.03;100824.19;5009939;28;20499;-53
2023/09/10 05:17:50;;;;;;;143.38;20.02;;;;;;;18.55;97.47;100823.38;4995471;28;20046;-43
2023/09/10 05:20:17;;;;;;;107.35;18.45;;;;;;;18.53;97.46;100811.75;5012044;28;20116;-44
2023/09/10 05:22:44;;;;;;;32.13;14.95;;;;;;;18.54;97.56;100814.16;5012982;28;20081;-44
2023/09/10 05:25:11;;;;;;;35.85;14.85;;;;;;;18.53;97.74;100809.72;5009762;28;20049;-45
2023/09/10 05:27:42;;;;;;;45.13;13.27;;;;;;;18.56;97.93;100819.38;5011831;28;20065;-45
2023/09/10 05:30:09;;;;;;;30.60;13.23;;;;;;;18.56;98.19;100819.38;5011278;28;20042;-45
2023/09/10 05:32:36;;;;;;;58.00;15.02;;;;;;;18.58;97.98;100826.19;5008811;28;20050;-44
2023/09/10 05:35:03;;;;;;;35.25;14.50;;;;;;;18.55;98.25;100829.78;5009466;28;20567;-44
2023/09/10 05:37:30;;;;;;;67.00;15.85;;;;;;;18.56;98.41;100827.78;5010949;28;20496;-46
2023/09/10 05:39:57;;;;;;;52.28;17.55;;;;;;;18.56;98.49;100814.53;5011120;28;20049;-45
2023/09/10 05:42:24;;;;;;;55.10;15.52;;;;;;;18.56;98.46;100813.78;5013050;28;20503;-44
2023/09/10 05:44:52;;;;;;;43.85;16.85;;;;;;;18.57;98.44;100816.16;5021335;28;20046;-44
2023/09/10 05:47:20;;;;;;;31.23;15.02;;;;;;;18.57;98.51;100810.56;5013163;28;20484;-44
2023/09/10 05:49:47;;;;;;;35.95;14.45;;;;;;;18.58;98.89;100814.97;5013282;28;20041;-43
2023/09/10 05:52:14;;;;;;;58.90;16.20;;;;;;;18.58;98.89;100816.97;5010650;28;20046;-47
2023/09/10 05:54:41;;;;;;;31.17;13.75;;;;;;;18.59;98.98;100808.16;5005333;28;20042;-45
2023/09/10 05:57:09;;;;;;;60.63;15.75;;;;;;;18.57;98.78;100816.16;5012391;28;20050;-44
2023/09/10 05:59:36;;;;;;;56.17;15.95;;;;;;;18.57;98.70;100827.38;5012576;28;20389;-44
2023/09/10 06:02:04;;;;;;;38.40;14.95;;;;;;;18.57;98.71;100827.38;5012762;28;20054;-44
2023/09/10 06:04:33;;;;;;;134.23;20.95;;;;;;;18.55;98.86;100823.38;5013023;28;20492;-45
2023/09/10 06:07:03;;;;;;;46.85;18.73;;;;;;;18.50;99.19;100818.97;5000592;28;20042;-51
2023/09/10 06:09:31;;;;;;;32.42;14.85;;;;;;;18.51;99.54;100817.75;5007919;28;20042;-44
2023/09/10 06:11:59;;;;;;;42.25;18.13;;;;;;;18.54;99.45;100816.94;5012706;28;20073;-43
2023/09/10 06:14:30;;;;;;;46.47;18.50;;;;;;;18.56;99.87;100816.56;5010155;28;20522;-44
2023/09/10 06:16:57;;;;;;;38.83;19.80;;;;;;;18.57;99.83;100815.34;5001204;28;20053;-44
2023/09/10 06:19:24;;;;;;;81.50;21.30;;;;;;;18.59;99.62;100816.56;5006609;28;20104;-46
2023/09/10 06:21:51;;;;;;;40.78;18.23;;;;;;;18.59;99.98;100813.75;5009651;28;20034;-44
2023/09/10 06:24:17;;;;;;;93.63;22.20;;;;;;;18.60;100.00;100817.38;5012498;28;20057;-45
2023/09/10 06:26:45;;;;;;;38.00;16.50;;;;;;;18.60;99.79;100815.38;5011178;28;20522;-46
2023/09/10 06:29:14;;;;;;;34.63;17.13;;;;;;;18.60;99.89;100820.97;4982625;28;20053;-45
2023/09/10 06:31:41;;;;;;;36.10;16.60;;;;;;;18.62;100.00;100829.78;5010582;28;20053;-44
2023/09/10 06:34:08;;;;;;;50.72;20.60;;;;;;;18.63;100.00;100830.59;5009308;28;20042;-44
2023/09/10 06:36:35;;;;;;;38.42;15.63;;;;;;;18.62;100.00;100829.78;5011098;28;20045;-45
2023/09/10 06:39:03;;;;;;;47.05;16.05;;;;;;;18.59;100.00;100827.78;5003097;28;20030;-44
2023/09/10 06:41:31;;;;;;;37.83;15.75;;;;;;;18.59;100.00;100835.38;5012312;28;20053;-46
2023/09/10 06:43:57;;;;;;;47.63;17.45;;;;;;;18.59;100.00;100832.56;5012185;28;20077;-49
2023/09/10 06:46:24;;;;;;;39.63;15.73;;;;;;;18.58;100.00;100829.00;4994133;28;20095;-47
2023/09/10 06:48:51;;;;;;;47.40;17.77;;;;;;;18.59;100.00;100827.78;5007956;28;20112;-46
2023/09/10 06:51:18;;;;;;;41.53;17.17;;;;;;;18.63;100.00;100825.78;5014561;28;20048;-46
2023/09/10 06:53:45;;;;;;;35.38;16.27;;;;;;;18.68;100.00;100833.00;4998754;28;20222;-48
2023/09/10 06:56:12;;;;;;;38.60;15.65;;;;;;;18.72;100.00;100816.97;5008115;28;20054;-51
2023/09/10 06:58:39;;;;;;;30.05;14.75;;;;;;;18.75;100.00;100822.59;5006829;28;20045;-48
2023/09/10 07:01:08;;;;;;;73.22;18.00;;;;;;;18.76;100.00;100810.19;5011356;28;20046;-47
2023/09/10 07:03:37;;;;;;;41.35;16.55;;;;;;;18.78;100.00;100824.59;5010067;28;20096;-46
2023/09/10 07:06:05;;;;;;;38.53;15.05;;;;;;;18.78;100.00;100821.81;4986896;28;20045;-46
2023/09/10 07:08:35;;;;;;;44.47;17.55;;;;;;;18.81;100.00;100821.00;5012021;28;20056;-46
2023/09/10 07:11:03;;;;;;;38.78;18.27;;;;;;;18.83;100.00;100813.00;5011423;28;20051;-48
2023/09/10 07:13:30;;;;;;;41.33;17.02;;;;;;;18.86;100.00;100828.22;5009500;28;20072;-50
2023/09/10 07:15:57;;;;;;;36.30;16.42;;;;;;;18.90;100.00;100828.22;5007779;28;20077;-49
2023/09/10 07:18:24;;;;;;;32.92;15.80;;;;;;;18.92;100.00;100825.81;5010274;28;20467;-48
2023/09/10 07:20:51;;;;;;;29.73;13.68;;;;;;;19.01;100.00;100829.06;5011302;28;20125;-49
2023/09/10 07:23:18;;;;;;;30.60;13.93;;;;;;;19.13;100.00;100842.66;5010396;28;20392;-48
2023/09/10 07:25:45;;;;;;;29.92;15.27;;;;;;;19.24;100.00;100840.66;5012047;28;20145;-48
2023/09/10 07:28:11;;;;;;;35.05;15.52;;;;;;;19.31;100.00;100833.03;5011670;28;20403;-47
2023/09/10 07:30:39;;;;;;;35.25;14.35;;;;;;;19.38;100.00;100835.06;5006540;28;20049;-48
2023/09/10 07:33:05;;;;;;;32.58;15.18;;;;;;;19.42;100.00;100824.63;5003825;28;20514;-48
2023/09/10 07:35:32;;;;;;;30.55;14.55;;;;;;;19.47;99.95;100813.00;5009976;28;20393;-52
2023/09/10 07:38:00;;;;;;;28.30;13.93;;;;;;;19.56;100.00;100816.19;5006066;28;20510;-49
2023/09/10 07:40:26;;;;;;;27.73;14.13;;;;;;;19.69;99.87;100811.75;4998447;28;20073;-49
2023/09/10 07:42:54;;;;;;;26.77;14.25;;;;;;;19.76;100.00;100808.91;5005257;28;20520;-48
2023/09/10 07:45:20;;;;;;;25.63;15.15;;;;;;;19.88;99.52;100808.47;5009669;28;20088;-51
2023/09/10 07:47:47;;;;;;;23.25;13.63;;;;;;;20.03;99.79;100804.41;5010444;28;20050;-47
2023/09/10 07:50:14;;;;;;;22.42;12.88;;;;;;;20.17;99.07;100805.56;5009642;28;20034;-48
2023/09/10 07:52:41;;;;;;;30.92;14.40;;;;;;;20.25;99.14;100795.91;4991337;28;20488;-46
2023/09/10 07:55:08;;;;;;;27.98;13.73;;;;;;;20.30;98.35;100801.09;4997813;28;20373;-46
2023/09/10 07:57:36;;;;;;;26.73;14.80;;;;;;;20.30;98.41;100792.66;4987512;28;20484;-48
2023/09/10 08:00:03;;;;;;;24.30;13.63;;;;;;;20.33;98.32;100803.09;5004502;28;20046;-50
2023/09/10 08:02:34;;;;;;;25.55;14.13;;;;;;;20.37;98.14;100812.28;5009337;28;20057;-47
2023/09/10 08:05:02;;;;;;;29.13;15.25;;;;;;;20.38;97.71;100806.28;5009971;28;20528;-47
2023/09/10 08:07:29;;;;;;;27.95;16.23;;;;;;;20.42;97.94;100798.59;5008090;28;20479;-50
2023/09/10 08:09:56;;;;;;;26.95;15.05;;;;;;;20.49;97.51;100797.78;5000723;28;20065;-52
2023/09/10 08:12:23;;;;;;;24.55;15.68;;;;;;;20.57;97.33;100793.72;5008672;28;20057;-46
2023/09/10 08:14:50;;;;;;;25.65;14.63;;;;;;;20.62;97.24;100787.66;5009146;28;20057;-48
2023/09/10 08:17:17;;;;;;;28.75;16.40;;;;;;;20.67;97.01;100790.00;5011245;28;20046;-47
2023/09/10 08:19:44;;;;;;;29.77;18.25;;;;;;;20.73;96.55;100785.53;5010862;28;20093;-48
2023/09/10 08:22:10;;;;;;;25.70;15.00;;;;;;;20.77;96.19;100789.13;5002170;28;20500;-46
2023/09/10 08:24:37;;;;;;;27.20;15.32;;;;;;;20.87;96.16;100793.06;5009979;28;20056;-44
2023/09/10 08:27:04;;;;;;;23.83;14.48;;;;;;;21.00;96.21;100803.41;5014557;28;20044;-44
2023/09/10 08:29:31;;;;;;;28.10;15.93;;;;;;;21.13;95.79;100804.53;5009597;28;20052;-45
2023/09/10 08:32:00;;;;;;;25.02;14.85;;;;;;;21.22;95.59;100799.25;5010669;28;20406;-46
2023/09/10 08:34:27;;;;;;;23.70;15.85;;;;;;;21.26;94.94;100793.56;5010906;28;20042;-50
2023/09/10 08:36:54;;;;;;;24.15;14.57;;;;;;;21.24;94.38;100794.00;5007374;28;20480;-47
2023/09/10 08:39:21;;;;;;;27.60;16.88;;;;;;;21.23;94.45;100800.06;5009945;28;20037;-46
2023/09/10 08:42:12;;;;;;;32.03;17.27;;;;;;;21.17;94.11;100796.88;5009869;28;20060;-48
2023/09/10 08:44:54;;;;;;;27.58;16.50;;;;;;;21.14;93.60;100789.25;5008297;28;20054;-50
2023/09/10 08:47:24;;;;;;;27.27;17.08;;;;;;;21.17;93.49;100791.25;5010143;28;20467;-45
2023/09/10 08:49:54;;;;;;;29.13;17.08;;;;;;;21.21;93.09;100791.19;4996854;28;20496;-49
2023/09/10 08:52:24;;;;;;;28.88;17.80;;;;;;;21.22;92.68;100787.97;4993020;28;20168;-45
2023/09/10 08:54:53;;;;;;;33.13;16.25;;;;;;;21.23;92.39;100789.56;5013498;28;20458;-45
2023/09/10 08:57:20;;;;;;;27.05;15.85;;;;;;;21.30;92.22;100776.63;5012776;28;20038;-45
2023/09/10 08:59:49;;;;;;;32.63;15.35;;;;;;;21.41;92.35;100777.34;4991885;28;20399;-45
2023/09/10 09:02:18;;;;;;;25.67;16.08;;;;;;;21.86;91.69;100776.06;5009134;28;20050;-48
2023/09/10 09:04:48;;;;;;;30.02;16.23;;;;;;;22.55;90.96;100774.72;5001197;28;20499;-45
2023/09/10 09:07:20;;;;;;;21.23;15.00;;;;;;;23.30;88.25;100775.88;5015726;28;20049;-46
2023/09/10 09:09:53;;;;;;;23.70;15.40;;;;;;;23.41;86.54;100782.19;5012319;28;20048;-45
2023/09/10 09:12:20;;;;;;;23.73;15.15;;;;;;;23.25;86.50;100775.56;5009444;28;20052;-43
2023/09/10 09:14:50;;;;;;;20.15;14.10;;;;;;;23.10;86.80;100772.22;4994486;28;20042;-44
2023/09/10 09:17:17;;;;;;;20.60;14.02;;;;;;;23.23;86.38;100770.38;4992803;28;20045;-43
2023/09/10 09:19:46;;;;;;;26.45;14.20;;;;;;;23.38;84.66;100766.09;5011132;28;20042;-44
2023/09/10 09:22:19;;;;;;;21.25;13.05;;;;;;;23.44;84.09;100770.00;5008040;28;20048;-45
2023/09/10 09:24:48;;;;;;;25.88;12.57;;;;;;;23.40;83.48;100766.47;5011742;28;20045;-45
2023/09/10 09:27:15;;;;;;;19.58;11.65;;;;;;;23.27;83.06;100762.63;5012675;28;20104;-47
2023/09/10 09:29:44;;;;;;;20.73;10.73;;;;;;;23.04;82.52;100752.16;5012818;28;20061;-46
2023/09/10 09:32:11;;;;;;;15.50;9.90;;;;;;;22.70;82.67;100747.88;4990394;28;20145;-44
2023/09/10 09:34:38;;;;;;;19.02;9.68;;;;;;;22.39;82.96;100747.13;5013432;28;20504;-44
2023/09/10 09:37:06;;;;;;;17.13;9.70;;;;;;;22.27;83.49;100740.03;5012274;28;20046;-45
2023/09/10 09:39:34;;;;;;;22.65;10.75;;;;;;;22.25;83.48;100750.94;5013595;28;20054;-44
2023/09/10 09:42:05;;;;;;;23.30;9.65;;;;;;;22.21;83.43;100749.41;5017268;28;20487;-42
2023/09/10 09:44:32;;;;;;;14.77;9.32;;;;;;;22.23;83.82;100746.97;5013695;28;20050;-45
2023/09/10 09:46:59;;;;;;;17.58;9.15;;;;;;;22.32;82.99;100748.03;5013573;28;20057;-45
2023/09/10 09:49:27;;;;;;;21.73;12.02;;;;;;;22.28;82.56;100744.47;5013381;28;20049;-46
2023/09/10 09:51:54;;;;;;;17.02;9.15;;;;;;;22.20;82.84;100751.44;5012152;28;20045;-44
2023/09/10 09:54:23;;;;;;;13.52;8.57;;;;;;;22.64;83.40;100730.63;5012823;28;20561;-42
2023/09/10 09:56:51;;;;;;;13.38;8.93;;;;;;;23.72;80.24;100737.56;5012822;28;20038;-43
2023/09/10 09:59:17;;;;;;;15.82;9.30;;;;;;;24.49;77.07;100752.03;4995990;28;20181;-43
2023/09/10 10:01:44;;;;;;;19.42;10.40;;;;;;;24.92;75.14;100745.38;5012567;28;20661;-44
2023/09/10 10:04:15;;;;;;;15.63;9.68;;;;;;;24.75;75.17;100739.69;5012885;28;20037;-43
2023/09/10 10:06:42;;;;;;;16.20;10.63;;;;;;;24.48;75.84;100744.81;4996108;28;20377;-43
2023/09/10 10:09:19;;;;;;;15.98;9.43;;;;;;;24.53;74.58;100747.09;5013075;28;20423;-43
2023/09/10 10:11:47;;;;;;;14.83;10.13;;;;;;;24.24;74.81;100746.16;5011744;28;20045;-43
2023/09/10 10:14:14;;;;;;;16.02;9.38;;;;;;;23.84;75.59;100745.38;4995323;28;20345;-46
2023/09/10 10:16:41;;;;;;;15.07;8.48;;;;;;;23.48;76.33;100745.28;4995903;28;20487;-42
2023/09/10 10:19:11;;;;;;;18.33;9.60;;;;;;;23.13;76.90;100740.28;5012727;28;20077;-43
2023/09/10 10:21:38;;;;;;;36.85;16.08;;;;;;;22.78;78.30;100730.41;5011051;28;20073;-45
2023/09/10 10:24:07;;;;;;;47.35;18.73;;;;;;;22.41;79.68;100720.09;5011413;28;20046;-43
2023/09/10 10:26:34;;;;;;;29.48;15.77;;;;;;;22.05;81.26;100724.66;5012589;28;20056;-44
2023/09/10 10:29:02;;;;;;;0.05;0.05;;;;;;;21.69;88.31;100715.81;5012244;28;20050;-43
2023/09/10 10:31:35;;;;;;;0.08;0.08;;;;;;;21.20;97.78;100719.22;4994894;28;20483;-45
2023/09/10 10:34:14;;;;;;;0.40;0.40;;;;;;;20.91;100.00;100712.22;5008891;28;20073;-44
2023/09/10 10:37:01;;;;;;;1.13;0.65;;;;;;;20.77;100.00;100718.78;5013040;28;20061;-44
2023/09/10 10:39:54;;;;;;;0.85;0.85;;;;;;;20.68;100.00;100717.69;4979084;28;20058;-43
2023/09/10 10:42:29;;;;;;;0.00;0.00;;;;;;;20.58;100.00;100713.72;5011409;28;20038;-44
2023/09/10 10:45:04;;;;;;;0.43;0.25;;;;;;;20.48;100.00;100725.84;5012505;28;20518;-43
2023/09/10 10:47:40;;;;;;;0.35;0.35;;;;;;;20.43;100.00;100715.84;5009238;28;20400;-43
2023/09/10 10:50:11;;;;;;;0.00;0.00;;;;;;;20.34;100.00;100720.31;4996902;28;20046;-44
2023/09/10 10:52:58;;;;;;;0.00;0.00;;;;;;;20.26;100.00;100702.69;5011841;28;20475;-44
2023/09/10 10:55:26;;;;;;;0.00;0.00;;;;;;;20.22;100.00;100701.09;5010559;28;20077;-43
2023/09/10 10:57:54;;;;;;;0.00;0.00;;;;;;;20.22;100.00;100699.09;5007481;28;20415;-44
2023/09/10 11:00:22;;;;;;;0.00;0.00;;;;;;;20.22;100.00;100684.22;5012088;28;20129;-43
2023/09/10 11:03:10;;;;;;;0.00;0.00;;;;;;;20.20;100.00;100689.47;4998983;28;20420;-43
2023/09/10 11:06:04;;;;;;;0.00;0.00;;;;;;;20.19;100.00;100696.28;4995682;28;20042;-41
2023/09/10 11:08:42;;;;;;;0.00;0.00;;;;;;;20.20;100.00;100704.31;5011457;28;20496;-42
2023/09/10 11:11:48;;;;;;;0.00;0.00;;;;;;;20.25;100.00;100703.13;5011880;28;20065;-40
2023/09/10 11:14:14;;;;;;;0.00;0.00;;;;;;;20.24;100.00;100707.13;4931892;29;20142;-46
2023/09/10 11:16:43;;;;;;;0.00;0.00;;;;;;;20.21;100.00;100702.28;4997403;28;20133;-43
2023/09/10 11:19:44;;;;;;;0.00;0.00;;;;;;;20.19;100.00;100690.69;5009573;28;20181;-43